sensor_id;sensor_type;location;lat;lon;timestamp;pressure;altitude;pressure_sealevel;temperature;humidity
61357;BME280;47227;46.752;23.576;2023-02-19T00:05:48;96071.85;;;8.40;74.76
61357;BME280;47227;46.752;23.576;2023-02-19T00:16:45;96064.86;;;8.41;72.99
61357;BME280;47227;46.752;23.576;2023-02-19T00:26:47;96074.36;;;8.50;73.02
61357;BME280;47227;46.752;23.576;2023-02-19T00:29:20;96082.25;;;8.53;72.96
61357;BME280;47227;46.752;23.576;2023-02-19T00:31:48;96076.77;;;8.57;72.38
61357;BME280;47227;46.752;23.576;2023-02-19T00:34:16;96073.44;;;8.58;72.52
61357;BME280;47227;46.752;23.576;2023-02-19T00:36:44;96075.16;;;8.58;72.40
61357;BME280;47227;46.752;23.576;2023-02-19T00:39:14;96077.67;;;8.58;72.11
61357;BME280;47227;46.752;23.576;2023-02-19T00:41:43;96081.61;;;8.59;71.83
61357;BME280;47227;46.752;23.576;2023-02-19T00:44:14;96084.63;;;8.61;71.31
61357;BME280;47227;46.752;23.576;2023-02-19T00:46:45;96083.70;;;8.62;71.14
61357;BME280;47227;46.752;23.576;2023-02-19T00:49:18;96078.66;;;8.61;71.27
61357;BME280;47227;46.752;23.576;2023-02-19T00:51:46;96084.02;;;8.59;70.92
61357;BME280;47227;46.752;23.576;2023-02-19T00:54:15;96087.49;;;8.57;70.40
61357;BME280;47227;46.752;23.576;2023-02-19T00:56:43;96086.78;;;8.55;70.36
61357;BME280;47227;46.752;23.576;2023-02-19T00:59:11;96079.77;;;8.52;70.14
61357;BME280;47227;46.752;23.576;2023-02-19T01:52:54;96062.08;;;7.87;71.09
61357;BME280;47227;46.752;23.576;2023-02-19T01:55:22;96057.13;;;7.85;71.04
61357;BME280;47227;46.752;23.576;2023-02-19T01:57:53;96061.56;;;7.85;71.19
61357;BME280;47227;46.752;23.576;2023-02-19T02:00:22;96052.88;;;7.85;70.95
61357;BME280;47227;46.752;23.576;2023-02-19T02:02:55;96060.05;;;7.82;70.86
61357;BME280;47227;46.752;23.576;2023-02-19T02:05:43;96066.27;;;7.79;70.96
61357;BME280;47227;46.752;23.576;2023-02-19T02:08:14;96071.34;;;7.76;70.58
61357;BME280;47227;46.752;23.576;2023-02-19T02:10:58;96061.70;;;7.75;71.12
61357;BME280;47227;46.752;23.576;2023-02-19T02:13:27;96064.92;;;7.71;70.84
61357;BME280;47227;46.752;23.576;2023-02-19T02:16:05;96061.52;;;7.70;71.33
61357;BME280;47227;46.752;23.576;2023-02-19T02:18:58;96062.44;;;7.66;71.29
61357;BME280;47227;46.752;23.576;2023-02-19T02:21:55;96079.56;;;7.63;71.35
61357;BME280;47227;46.752;23.576;2023-02-19T02:24:49;96079.39;;;7.62;70.94
61357;BME280;47227;46.752;23.576;2023-02-19T02:27:41;96078.00;;;7.57;71.11
61357;BME280;47227;46.752;23.576;2023-02-19T02:30:26;96084.42;;;7.52;71.10
61357;BME280;47227;46.752;23.576;2023-02-19T02:35:53;96095.05;;;7.42;71.56
61357;BME280;47227;46.752;23.576;2023-02-19T02:38:26;96096.46;;;7.38;71.52
61357;BME280;47227;46.752;23.576;2023-02-19T02:40:55;96105.39;;;7.36;71.94
61357;BME280;47227;46.752;23.576;2023-02-19T02:43:24;96104.02;;;7.35;71.53
61357;BME280;47227;46.752;23.576;2023-02-19T02:45:53;96107.39;;;7.31;71.74
61357;BME280;47227;46.752;23.576;2023-02-19T02:48:31;96107.47;;;7.27;71.98
61357;BME280;47227;46.752;23.576;2023-02-19T02:51:15;96105.38;;;7.23;71.91
61357;BME280;47227;46.752;23.576;2023-02-19T02:53:56;96114.45;;;7.18;71.92
61357;BME280;47227;46.752;23.576;2023-02-19T02:56:42;96114.20;;;7.10;72.02
61357;BME280;47227;46.752;23.576;2023-02-19T02:59:13;96114.77;;;7.05;72.42
61357;BME280;47227;46.752;23.576;2023-02-19T03:01:45;96114.21;;;6.98;72.39
61357;BME280;47227;46.752;23.576;2023-02-19T03:10:38;96111.45;;;6.96;72.21
61357;BME280;47227;46.752;23.576;2023-02-19T03:13:14;96121.13;;;6.95;71.95
61357;BME280;47227;46.752;23.576;2023-02-19T03:16:11;96122.73;;;6.95;72.07
61357;BME280;47227;46.752;23.576;2023-02-19T03:18:53;96120.52;;;6.96;71.90
61357;BME280;47227;46.752;23.576;2023-02-19T03:21:45;96130.40;;;6.97;71.40
61357;BME280;47227;46.752;23.576;2023-02-19T03:24:14;96135.14;;;6.99;71.32
61357;BME280;47227;46.752;23.576;2023-02-19T03:27:03;96133.27;;;7.02;71.08
61357;BME280;47227;46.752;23.576;2023-02-19T03:29:37;96137.13;;;7.02;70.88
61357;BME280;47227;46.752;23.576;2023-02-19T03:32:11;96144.30;;;7.03;70.67
61357;BME280;47227;46.752;23.576;2023-02-19T03:34:47;96154.69;;;7.05;70.72
61357;BME280;47227;46.752;23.576;2023-02-19T03:37:25;96158.63;;;7.09;70.84
61357;BME280;47227;46.752;23.576;2023-02-19T03:39:56;96165.70;;;7.11;70.65
61357;BME280;47227;46.752;23.576;2023-02-19T03:42:40;96168.92;;;7.10;70.68
61357;BME280;47227;46.752;23.576;2023-02-19T03:45:22;96175.60;;;7.05;70.27
61357;BME280;47227;46.752;23.576;2023-02-19T03:48:14;96182.59;;;6.96;70.61
61357;BME280;47227;46.752;23.576;2023-02-19T03:50:57;96190.52;;;6.87;70.28
61357;BME280;47227;46.752;23.576;2023-02-19T03:53:34;96203.12;;;6.78;70.47
61357;BME280;47227;46.752;23.576;2023-02-19T03:56:08;96201.39;;;6.66;70.26
61357;BME280;47227;46.752;23.576;2023-02-19T03:58:59;96202.42;;;6.57;70.52
61357;BME280;47227;46.752;23.576;2023-02-19T04:01:43;96209.53;;;6.48;70.81
61357;BME280;47227;46.752;23.576;2023-02-19T04:04:27;96208.92;;;6.42;71.29
61357;BME280;47227;46.752;23.576;2023-02-19T04:06:57;96211.10;;;6.39;71.13
61357;BME280;47227;46.752;23.576;2023-02-19T04:09:33;96210.92;;;6.37;71.05
61357;BME280;47227;46.752;23.576;2023-02-19T04:12:10;96212.08;;;6.35;71.32
61357;BME280;47227;46.752;23.576;2023-02-19T04:15:00;96215.32;;;6.32;71.27
61357;BME280;47227;46.752;23.576;2023-02-19T04:17:50;96212.84;;;6.26;71.37
61357;BME280;47227;46.752;23.576;2023-02-19T04:20:22;96215.80;;;6.20;71.57
61357;BME280;47227;46.752;23.576;2023-02-19T04:22:53;96218.16;;;6.13;71.70
61357;BME280;47227;46.752;23.576;2023-02-19T04:25:27;96215.86;;;6.06;71.71
61357;BME280;47227;46.752;23.576;2023-02-19T04:27:58;96214.66;;;5.99;71.68
61357;BME280;47227;46.752;23.576;2023-02-19T04:30:28;96213.04;;;5.92;72.06
61357;BME280;47227;46.752;23.576;2023-02-19T04:33:16;96211.06;;;5.93;72.74
61357;BME280;47227;46.752;23.576;2023-02-19T04:35:45;96214.30;;;5.99;73.00
61357;BME280;47227;46.752;23.576;2023-02-19T04:38:17;96212.96;;;6.03;72.96
61357;BME280;47227;46.752;23.576;2023-02-19T04:40:45;96219.38;;;6.10;73.27
61357;BME280;47227;46.752;23.576;2023-02-19T04:43:35;96223.34;;;6.16;73.16
61357;BME280;47227;46.752;23.576;2023-02-19T04:46:04;96223.30;;;6.18;72.91
61357;BME280;47227;46.752;23.576;2023-02-19T04:48:34;96223.55;;;6.18;72.60
61357;BME280;47227;46.752;23.576;2023-02-19T04:51:05;96223.34;;;6.16;72.70
61357;BME280;47227;46.752;23.576;2023-02-19T04:53:38;96231.09;;;6.12;72.24
61357;BME280;47227;46.752;23.576;2023-02-19T04:56:09;96225.09;;;6.05;72.50
61357;BME280;47227;46.752;23.576;2023-02-19T04:59:05;96227.95;;;5.99;72.52
61357;BME280;47227;46.752;23.576;2023-02-19T05:01:41;96224.63;;;5.94;72.59
61357;BME280;47227;46.752;23.576;2023-02-19T05:04:10;96223.92;;;5.93;72.68
61357;BME280;47227;46.752;23.576;2023-02-19T05:06:42;96221.83;;;5.96;72.99
61357;BME280;47227;46.752;23.576;2023-02-19T05:09:11;96221.97;;;6.01;72.92
61357;BME280;47227;46.752;23.576;2023-02-19T05:11:40;96217.16;;;6.08;72.85
61357;BME280;47227;46.752;23.576;2023-02-19T05:14:08;96216.84;;;6.18;72.93
61357;BME280;47227;46.752;23.576;2023-02-19T05:16:37;96216.92;;;6.31;72.68
61357;BME280;47227;46.752;23.576;2023-02-19T05:19:05;96214.14;;;6.44;72.42
61357;BME280;47227;46.752;23.576;2023-02-19T05:21:34;96217.54;;;6.54;72.40
61357;BME280;47227;46.752;23.576;2023-02-19T05:24:02;96216.31;;;6.61;72.55
61357;BME280;47227;46.752;23.576;2023-02-19T05:26:38;96215.63;;;6.67;72.13
61357;BME280;47227;46.752;23.576;2023-02-19T05:29:12;96219.21;;;6.73;72.14
61357;BME280;47227;46.752;23.576;2023-02-19T05:31:41;96222.20;;;6.78;71.68
61357;BME280;47227;46.752;23.576;2023-02-19T05:34:11;96223.27;;;6.81;71.54
61357;BME280;47227;46.752;23.576;2023-02-19T05:36:40;96223.23;;;6.84;71.33
61357;BME280;47227;46.752;23.576;2023-02-19T05:39:11;96225.89;;;6.86;71.53
61357;BME280;47227;46.752;23.576;2023-02-19T05:41:39;96226.83;;;6.88;71.20
61357;BME280;47227;46.752;23.576;2023-02-19T05:44:09;96223.11;;;6.89;70.99
61357;BME280;47227;46.752;23.576;2023-02-19T05:46:39;96220.48;;;6.91;71.04
61357;BME280;47227;46.752;23.576;2023-02-19T05:49:08;96215.69;;;6.91;70.64
61357;BME280;47227;46.752;23.576;2023-02-19T05:51:39;96209.41;;;6.90;70.58
61357;BME280;47227;46.752;23.576;2023-02-19T05:54:07;96206.60;;;6.90;70.74
61357;BME280;47227;46.752;23.576;2023-02-19T05:56:57;96202.44;;;6.91;70.82
61357;BME280;47227;46.752;23.576;2023-02-19T05:59:26;96199.58;;;6.93;70.46
61357;BME280;47227;46.752;23.576;2023-02-19T06:01:55;96193.77;;;6.95;70.53
61357;BME280;47227;46.752;23.576;2023-02-19T06:04:26;96190.87;;;6.96;70.63
61357;BME280;47227;46.752;23.576;2023-02-19T06:06:57;96185.83;;;6.97;70.22
61357;BME280;47227;46.752;23.576;2023-02-19T06:09:25;96179.98;;;6.99;70.52
61357;BME280;47227;46.752;23.576;2023-02-19T06:12:14;96180.35;;;7.01;70.41
61357;BME280;47227;46.752;23.576;2023-02-19T06:14:44;96181.88;;;7.08;70.14
61357;BME280;47227;46.752;23.576;2023-02-19T06:17:14;96170.63;;;7.14;70.14
61357;BME280;47227;46.752;23.576;2023-02-19T06:19:43;96161.27;;;7.19;70.24
61357;BME280;47227;46.752;23.576;2023-02-19T06:22:14;96154.65;;;7.21;69.82
61357;BME280;47227;46.752;23.576;2023-02-19T06:24:46;96157.46;;;7.23;69.19
61357;BME280;47227;46.752;23.576;2023-02-19T06:27:15;96155.68;;;7.25;69.65
61357;BME280;47227;46.752;23.576;2023-02-19T06:29:44;96169.04;;;7.25;69.42
61357;BME280;47227;46.752;23.576;2023-02-19T06:32:13;96164.61;;;7.25;69.06
61357;BME280;47227;46.752;23.576;2023-02-19T06:34:43;96162.16;;;7.25;68.98
61357;BME280;47227;46.752;23.576;2023-02-19T06:37:18;96165.90;;;7.27;69.31
61357;BME280;47227;46.752;23.576;2023-02-19T06:39:47;96165.65;;;7.28;69.01
61357;BME280;47227;46.752;23.576;2023-02-19T06:42:15;96159.07;;;7.30;68.75
61357;BME280;47227;46.752;23.576;2023-02-19T06:44:47;96156.27;;;7.32;68.60
61357;BME280;47227;46.752;23.576;2023-02-19T06:47:19;96155.77;;;7.34;68.76
61357;BME280;47227;46.752;23.576;2023-02-19T06:50:07;96163.35;;;7.35;68.22
61357;BME280;47227;46.752;23.576;2023-02-19T06:52:35;96166.52;;;7.37;68.46
61357;BME280;47227;46.752;23.576;2023-02-19T06:55:04;96166.66;;;7.39;68.32
61357;BME280;47227;46.752;23.576;2023-02-19T06:57:36;96166.02;;;7.40;68.31
61357;BME280;47227;46.752;23.576;2023-02-19T07:00:09;96163.13;;;7.42;68.36
61357;BME280;47227;46.752;23.576;2023-02-19T07:02:47;96169.70;;;7.45;68.46
61357;BME280;47227;46.752;23.576;2023-02-19T07:05:25;96162.70;;;7.47;68.43
61357;BME280;47227;46.752;23.576;2023-02-19T07:07:53;96162.73;;;7.50;68.28
61357;BME280;47227;46.752;23.576;2023-02-19T07:10:22;96153.11;;;7.52;68.32
61357;BME280;47227;46.752;23.576;2023-02-19T07:12:49;96155.67;;;7.55;68.31
61357;BME280;47227;46.752;23.576;2023-02-19T07:15:18;96155.10;;;7.57;68.35
61357;BME280;47227;46.752;23.576;2023-02-19T07:17:46;96151.11;;;7.60;68.19
61357;BME280;47227;46.752;23.576;2023-02-19T07:20:25;96146.06;;;7.63;68.46
61357;BME280;47227;46.752;23.576;2023-02-19T07:22:56;96154.31;;;7.66;67.80
61357;BME280;47227;46.752;23.576;2023-02-19T07:25:44;96156.22;;;7.70;67.83
61357;BME280;47227;46.752;23.576;2023-02-19T07:28:13;96157.98;;;7.74;67.52
61357;BME280;47227;46.752;23.576;2023-02-19T07:30:43;96153.09;;;7.80;67.31
61357;BME280;47227;46.752;23.576;2023-02-19T09:06:04;96077.20;;;10.29;58.21
61357;BME280;47227;46.752;23.576;2023-02-19T09:41:55;96078.71;;;12.03;52.54
61357;BME280;47227;46.752;23.576;2023-02-19T09:44:28;96075.20;;;12.23;51.87
61357;BME280;47227;46.752;23.576;2023-02-19T09:46:59;96094.42;;;12.40;50.46
61357;BME280;47227;46.752;23.576;2023-02-19T09:49:32;96077.85;;;12.50;49.59
61357;BME280;47227;46.752;23.576;2023-02-19T09:52:17;96083.16;;;12.54;47.84
61357;BME280;47227;46.752;23.576;2023-02-19T09:54:50;96067.48;;;12.48;48.23
61357;BME280;47227;46.752;23.576;2023-02-19T09:57:20;96072.79;;;12.55;47.89
61357;BME280;47227;46.752;23.576;2023-02-19T09:59:52;96077.06;;;12.56;47.53
61357;BME280;47227;46.752;23.576;2023-02-19T10:02:22;96077.27;;;12.50;46.84
61357;BME280;47227;46.752;23.576;2023-02-19T10:04:52;96084.31;;;12.51;46.30
61357;BME280;47227;46.752;23.576;2023-02-19T10:07:23;96085.73;;;12.45;46.11
61357;BME280;47227;46.752;23.576;2023-02-19T10:09:58;96084.36;;;12.40;45.92
61357;BME280;47227;46.752;23.576;2023-02-19T10:12:29;96081.33;;;12.35;46.77
61357;BME280;47227;46.752;23.576;2023-02-19T10:15:05;96081.27;;;12.36;47.03
61357;BME280;47227;46.752;23.576;2023-02-19T10:17:36;96101.41;;;12.33;45.48
61357;BME280;47227;46.752;23.576;2023-02-19T10:20:05;96080.52;;;12.22;45.52
61357;BME280;47227;46.752;23.576;2023-02-19T10:22:34;96074.70;;;12.24;45.20
61357;BME280;47227;46.752;23.576;2023-02-19T10:25:05;96067.21;;;12.18;45.62
61357;BME280;47227;46.752;23.576;2023-02-19T10:27:33;96058.54;;;12.15;45.51
61357;BME280;47227;46.752;23.576;2023-02-19T10:30:01;96048.28;;;12.15;46.11
61357;BME280;47227;46.752;23.576;2023-02-19T10:32:29;96058.59;;;12.22;46.06
61357;BME280;47227;46.752;23.576;2023-02-19T10:35:14;96052.66;;;12.25;45.59
61357;BME280;47227;46.752;23.576;2023-02-19T10:37:46;96057.06;;;12.20;45.04
61357;BME280;47227;46.752;23.576;2023-02-19T10:40:19;96049.23;;;12.21;45.77
61357;BME280;47227;46.752;23.576;2023-02-19T10:42:51;96047.45;;;12.25;45.51
61357;BME280;47227;46.752;23.576;2023-02-19T10:45:24;96050.19;;;12.29;45.21
61357;BME280;47227;46.752;23.576;2023-02-19T10:47:57;96048.20;;;12.32;45.13
61357;BME280;47227;46.752;23.576;2023-02-19T10:50:30;96049.19;;;12.30;45.20
61357;BME280;47227;46.752;23.576;2023-02-19T10:53:00;96053.96;;;12.46;45.15
61357;BME280;47227;46.752;23.576;2023-02-19T10:55:32;96023.95;;;12.59;45.10
61357;BME280;47227;46.752;23.576;2023-02-19T10:58:20;96015.89;;;12.68;45.42
61357;BME280;47227;46.752;23.576;2023-02-19T11:01:11;96024.75;;;12.84;45.08
61357;BME280;47227;46.752;23.576;2023-02-19T11:03:40;96024.39;;;13.02;45.01
61357;BME280;47227;46.752;23.576;2023-02-19T11:06:09;96020.66;;;13.12;45.44
61357;BME280;47227;46.752;23.576;2023-02-19T11:08:47;96028.11;;;13.01;45.93
61357;BME280;47227;46.752;23.576;2023-02-19T11:11:36;96032.75;;;12.86;46.00
61357;BME280;47227;46.752;23.576;2023-02-19T11:14:17;96042.60;;;12.87;46.08
61357;BME280;47227;46.752;23.576;2023-02-19T11:16:47;96042.10;;;12.63;46.47
61357;BME280;47227;46.752;23.576;2023-02-19T11:19:26;96026.08;;;12.55;46.89
61357;BME280;47227;46.752;23.576;2023-02-19T11:21:55;96012.66;;;12.44;47.90
61357;BME280;47227;46.752;23.576;2023-02-19T11:24:30;96025.46;;;12.27;48.57
61357;BME280;47227;46.752;23.576;2023-02-19T11:27:06;96020.46;;;12.13;49.33
61357;BME280;47227;46.752;23.576;2023-02-19T11:29:41;96023.67;;;12.14;49.31
61357;BME280;47227;46.752;23.576;2023-02-19T11:32:27;96021.52;;;12.14;49.64
61357;BME280;47227;46.752;23.576;2023-02-19T11:35:22;96007.95;;;12.28;49.62
61357;BME280;47227;46.752;23.576;2023-02-19T11:37:57;96011.20;;;12.38;49.50
61357;BME280;47227;46.752;23.576;2023-02-19T11:40:42;96012.66;;;12.48;49.18
61357;BME280;47227;46.752;23.576;2023-02-19T11:46:15;95995.63;;;12.68;48.85
61357;BME280;47227;46.752;23.576;2023-02-19T11:48:58;95997.02;;;12.81;48.78
61357;BME280;47227;46.752;23.576;2023-02-19T11:51:50;95995.38;;;12.85;48.60
61357;BME280;47227;46.752;23.576;2023-02-19T11:54:36;95992.21;;;12.70;49.30
61357;BME280;47227;46.752;23.576;2023-02-19T12:00:20;95997.85;;;12.29;50.75
61357;BME280;47227;46.752;23.576;2023-02-19T12:03:13;95993.55;;;12.22;50.60
61357;BME280;47227;46.752;23.576;2023-02-19T12:09:08;95994.42;;;12.18;49.80
61357;BME280;47227;46.752;23.576;2023-02-19T12:12:05;95998.02;;;12.25;49.14
61357;BME280;47227;46.752;23.576;2023-02-19T12:15:02;95995.69;;;12.32;48.66
61357;BME280;47227;46.752;23.576;2023-02-19T12:20:54;95992.64;;;12.37;48.04
61357;BME280;47227;46.752;23.576;2023-02-19T12:26:58;96000.64;;;12.15;47.90
61357;BME280;47227;46.752;23.576;2023-02-19T12:32:45;95990.13;;;11.89;48.73
61357;BME280;47227;46.752;23.576;2023-02-19T12:35:39;95984.89;;;11.85;48.91
61357;BME280;47227;46.752;23.576;2023-02-19T12:38:21;95985.71;;;11.91;48.83
61357;BME280;47227;46.752;23.576;2023-02-19T12:41:05;95988.50;;;12.00;48.90
61357;BME280;47227;46.752;23.576;2023-02-19T12:43:39;95994.98;;;12.05;48.84
61357;BME280;47227;46.752;23.576;2023-02-19T12:46:15;95985.36;;;11.97;48.15
61357;BME280;47227;46.752;23.576;2023-02-19T12:48:54;95993.77;;;11.82;48.48
61357;BME280;47227;46.752;23.576;2023-02-19T12:51:32;95994.75;;;11.68;49.05
61357;BME280;47227;46.752;23.576;2023-02-19T12:54:26;96003.77;;;11.54;49.64
61357;BME280;47227;46.752;23.576;2023-02-19T12:57:03;96006.36;;;11.42;50.52
61357;BME280;47227;46.752;23.576;2023-02-19T12:59:47;96006.98;;;11.28;51.53
61357;BME280;47227;46.752;23.576;2023-02-19T13:02:27;96003.95;;;11.14;52.41
61357;BME280;47227;46.752;23.576;2023-02-19T13:05:05;96009.59;;;10.92;53.94
61357;BME280;47227;46.752;23.576;2023-02-19T13:07:45;95998.98;;;10.70;55.37
61357;BME280;47227;46.752;23.576;2023-02-19T13:10:28;95997.08;;;10.50;56.31
61357;BME280;47227;46.752;23.576;2023-02-19T13:13:02;96005.07;;;10.29;57.28
61357;BME280;47227;46.752;23.576;2023-02-19T13:15:36;95997.39;;;10.16;57.86
61357;BME280;47227;46.752;23.576;2023-02-19T13:18:15;96003.84;;;10.02;58.76
61357;BME280;47227;46.752;23.576;2023-02-19T13:20:46;95996.20;;;9.90;59.02
61357;BME280;47227;46.752;23.576;2023-02-19T13:23:22;95997.41;;;9.79;59.99
61357;BME280;47227;46.752;23.576;2023-02-19T13:26:37;95984.90;;;9.64;60.52
61357;BME280;47227;46.752;23.576;2023-02-19T13:29:28;95994.91;;;9.59;61.10
61357;BME280;47227;46.752;23.576;2023-02-19T13:32:17;95986.83;;;9.46;62.14
61357;BME280;47227;46.752;23.576;2023-02-19T13:35:11;95994.29;;;9.28;62.65
61357;BME280;47227;46.752;23.576;2023-02-19T13:37:43;95985.65;;;9.14;62.72
61357;BME280;47227;46.752;23.576;2023-02-19T13:40:34;95973.48;;;9.07;62.99
61357;BME280;47227;46.752;23.576;2023-02-19T13:43:06;95972.92;;;9.03;63.37
61357;BME280;47227;46.752;23.576;2023-02-19T13:45:42;95966.59;;;9.02;63.52
61357;BME280;47227;46.752;23.576;2023-02-19T13:48:25;95966.03;;;9.09;63.48
61357;BME280;47227;46.752;23.576;2023-02-19T13:54:12;95948.41;;;9.16;63.33
61357;BME280;47227;46.752;23.576;2023-02-19T13:56:41;95936.33;;;9.10;63.51
61357;BME280;47227;46.752;23.576;2023-02-19T13:59:24;95938.33;;;9.07;63.91
61357;BME280;47227;46.752;23.576;2023-02-19T14:02:23;95939.30;;;9.00;64.05
61357;BME280;47227;46.752;23.576;2023-02-19T14:04:56;95945.29;;;8.93;64.82
61357;BME280;47227;46.752;23.576;2023-02-19T14:07:53;95950.40;;;8.87;64.85
61357;BME280;47227;46.752;23.576;2023-02-19T14:10:49;95952.98;;;8.84;64.98
61357;BME280;47227;46.752;23.576;2023-02-19T14:13:54;95942.83;;;8.84;65.04
61357;BME280;47227;46.752;23.576;2023-02-19T14:19:48;95934.18;;;9.87;65.01
61357;BME280;47227;46.752;23.576;2023-02-19T14:25:27;95920.71;;;12.10;59.76
61357;BME280;47227;46.752;23.576;2023-02-19T14:28:13;95920.80;;;12.70;57.79
61357;BME280;47227;46.752;23.576;2023-02-19T14:31:01;95919.64;;;13.35;55.75
61357;BME280;47227;46.752;23.576;2023-02-19T14:33:32;95911.70;;;13.80;53.68
61357;BME280;47227;46.752;23.576;2023-02-19T14:36:09;95909.10;;;13.61;51.93
61357;BME280;47227;46.752;23.576;2023-02-19T14:38:47;95913.47;;;12.96;52.71
61357;BME280;47227;46.752;23.576;2023-02-19T14:41:17;95905.55;;;12.27;54.12
61357;BME280;47227;46.752;23.576;2023-02-19T14:43:48;95916.74;;;11.87;55.23
61357;BME280;47227;46.752;23.576;2023-02-19T14:46:28;95920.66;;;11.51;56.18
61357;BME280;47227;46.752;23.576;2023-02-19T14:49:04;95907.01;;;11.19;57.37
61357;BME280;47227;46.752;23.576;2023-02-19T14:51:39;95894.55;;;10.94;57.36
61357;BME280;47227;46.752;23.576;2023-02-19T14:54:20;95900.48;;;10.77;58.17
61357;BME280;47227;46.752;23.576;2023-02-19T14:56:51;95887.31;;;10.62;58.90
61357;BME280;47227;46.752;23.576;2023-02-19T14:59:25;95889.99;;;10.51;59.36
61357;BME280;47227;46.752;23.576;2023-02-19T15:01:55;95879.91;;;10.37;59.66
61357;BME280;47227;46.752;23.576;2023-02-19T15:04:26;95884.20;;;10.32;59.62
61357;BME280;47227;46.752;23.576;2023-02-19T15:06:56;95866.11;;;10.27;59.91
61357;BME280;47227;46.752;23.576;2023-02-19T15:09:31;95870.59;;;10.23;59.89
61357;BME280;47227;46.752;23.576;2023-02-19T15:12:00;95858.16;;;10.20;60.19
61357;BME280;47227;46.752;23.576;2023-02-19T15:14:30;95852.58;;;10.16;60.62
61357;BME280;47227;46.752;23.576;2023-02-19T15:17:01;95851.35;;;10.13;60.96
61357;BME280;47227;46.752;23.576;2023-02-19T15:19:33;95839.91;;;10.09;61.06
61357;BME280;47227;46.752;23.576;2023-02-19T15:22:03;95823.65;;;10.07;60.85
61357;BME280;47227;46.752;23.576;2023-02-19T15:24:31;95819.55;;;10.05;61.14
61357;BME280;47227;46.752;23.576;2023-02-19T15:26:59;95811.16;;;10.03;61.20
61357;BME280;47227;46.752;23.576;2023-02-19T15:29:50;95818.75;;;10.00;61.04
61357;BME280;47227;46.752;23.576;2023-02-19T15:33:19;95831.10;;;9.99;60.15
61357;BME280;47227;46.752;23.576;2023-02-19T15:39:33;95854.84;;;9.97;59.84
61357;BME280;47227;46.752;23.576;2023-02-19T15:42:48;95875.48;;;9.92;60.30
61357;BME280;47227;46.752;23.576;2023-02-19T15:45:40;95890.09;;;9.81;62.04
61357;BME280;47227;46.752;23.576;2023-02-19T15:48:19;95904.68;;;9.57;64.94
61357;BME280;47227;46.752;23.576;2023-02-19T15:50:54;95918.54;;;9.28;67.39
61357;BME280;47227;46.752;23.576;2023-02-19T15:53:28;95925.16;;;8.94;69.47
61357;BME280;47227;46.752;23.576;2023-02-19T15:56:26;95926.14;;;8.58;71.51
61357;BME280;47227;46.752;23.576;2023-02-19T15:59:26;95921.33;;;8.23;72.61
61357;BME280;47227;46.752;23.576;2023-02-19T16:02:00;95923.94;;;7.97;75.03
61357;BME280;47227;46.752;23.576;2023-02-19T16:04:32;95931.42;;;7.77;77.18
61357;BME280;47227;46.752;23.576;2023-02-19T16:07:02;95926.77;;;7.60;77.64
61357;BME280;47227;46.752;23.576;2023-02-19T16:09:35;95932.94;;;7.52;77.61
61357;BME280;47227;46.752;23.576;2023-02-19T16:12:19;95927.16;;;7.46;78.54
61357;BME280;47227;46.752;23.576;2023-02-19T16:14:47;95913.20;;;7.39;79.32
61357;BME280;47227;46.752;23.576;2023-02-19T16:17:21;95900.80;;;7.30;80.02
61357;BME280;47227;46.752;23.576;2023-02-19T16:19:56;95912.87;;;7.25;80.37
61357;BME280;47227;46.752;23.576;2023-02-19T16:22:28;95914.73;;;7.21;80.66
61357;BME280;47227;46.752;23.576;2023-02-19T16:25:03;95920.13;;;7.17;80.87
61357;BME280;47227;46.752;23.576;2023-02-19T16:27:35;95928.77;;;7.11;82.24
61357;BME280;47227;46.752;23.576;2023-02-19T16:30:22;95930.00;;;7.02;83.60
61357;BME280;47227;46.752;23.576;2023-02-19T16:33:21;95918.59;;;6.89;83.63
61357;BME280;47227;46.752;23.576;2023-02-19T16:35:55;95892.92;;;6.78;83.97
61357;BME280;47227;46.752;23.576;2023-02-19T16:38:23;95874.33;;;6.69;84.59
61357;BME280;47227;46.752;23.576;2023-02-19T16:55:32;95874.27;;;6.61;87.58
61357;BME280;47227;46.752;23.576;2023-02-19T19:03:20;96093.12;;;5.59;81.86
61357;BME280;47227;46.752;23.576;2023-02-19T19:07:29;96111.55;;;5.12;84.52
61357;BME280;47227;46.752;23.576;2023-02-19T19:29:37;96159.81;;;3.97;86.29
61357;BME280;47227;46.752;23.576;2023-02-19T21:41:34;96318.95;;;3.42;91.00
61357;BME280;47227;46.752;23.576;2023-02-19T21:44:08;96322.16;;;3.27;90.34
61357;BME280;47227;46.752;23.576;2023-02-19T21:46:37;96326.86;;;3.19;89.50
61357;BME280;47227;46.752;23.576;2023-02-19T21:49:05;96327.56;;;3.08;89.30
61357;BME280;47227;46.752;23.576;2023-02-19T21:51:40;96334.78;;;2.99;89.23
61357;BME280;47227;46.752;23.576;2023-02-19T21:54:16;96339.00;;;2.96;89.28
61357;BME280;47227;46.752;23.576;2023-02-19T21:56:44;96348.52;;;2.95;89.31
61357;BME280;47227;46.752;23.576;2023-02-19T21:59:13;96354.17;;;2.92;89.42
61357;BME280;47227;46.752;23.576;2023-02-19T22:01:42;96370.27;;;2.86;89.23
61357;BME280;47227;46.752;23.576;2023-02-19T22:04:19;96371.42;;;2.71;88.72
61357;BME280;47227;46.752;23.576;2023-02-19T22:06:54;96389.00;;;2.66;87.90
61357;BME280;47227;46.752;23.576;2023-02-19T22:09:22;96386.85;;;2.50;87.19
61357;BME280;47227;46.752;23.576;2023-02-19T22:11:51;96395.76;;;2.33;86.12
61357;BME280;47227;46.752;23.576;2023-02-19T22:14:19;96410.41;;;2.22;85.92
61357;BME280;47227;46.752;23.576;2023-02-19T22:16:47;96421.50;;;2.15;85.69
61357;BME280;47227;46.752;23.576;2023-02-19T22:19:17;96426.85;;;2.09;85.59
61357;BME280;47227;46.752;23.576;2023-02-19T22:21:45;96427.35;;;2.01;85.47
61357;BME280;47227;46.752;23.576;2023-02-19T22:24:18;96432.02;;;1.95;85.74
61357;BME280;47227;46.752;23.576;2023-02-19T22:26:55;96433.98;;;1.93;86.10
61357;BME280;47227;46.752;23.576;2023-02-19T22:29:23;96437.07;;;1.92;86.23
61357;BME280;47227;46.752;23.576;2023-02-19T22:31:54;96444.11;;;1.91;86.54
61357;BME280;47227;46.752;23.576;2023-02-19T22:34:26;96454.83;;;1.92;86.63